Time;durP1;ratioP1;P1;durP2;ratioP2;P2;SDS_P1;SDS_P2;PMS_P1;PMS_P2;Temp;Humidity;BMP_temperature;BMP_pressure;BME280_temperature;BME280_humidity;BME280_pressure;Samples;Min_cycle;Max_cycle;Signal;HPM_P1;HPM_P2
2021/06/27 00:01:22;;;;;;;8.90;7.93;;;;;;;15.87;100.00;96426.16;4972355;28;20082;-58
2021/06/27 00:03:51;;;;;;;;;;;;;;;15.86;100.00;96428.00;4965246;28;20069;-56
2021/06/27 00:06:20;;;;;;;13.10;9.02;;;;;;;15.90;100.00;96423.13;4971484;28;19961;-57
2021/06/27 00:08:50;;;;;;;9.32;8.23;;;;;;;15.90;100.00;96420.47;4965486;28;20074;-56
2021/06/27 00:11:19;;;;;;;10.80;8.65;;;;;;;15.92;100.00;96420.28;4969237;28;20074;-58
2021/06/27 00:13:50;;;;;;;10.00;8.48;;;;;;;15.88;100.00;96423.31;4964077;28;20445;-56
2021/06/27 00:16:19;;;;;;;12.18;9.82;;;;;;;15.96;100.00;96424.25;4974452;28;20073;-56
2021/06/27 00:18:47;;;;;;;10.50;9.40;;;;;;;15.90;100.00;96423.97;4967880;28;20063;-61
2021/06/27 00:21:16;;;;;;;11.32;10.15;;;;;;;15.94;100.00;96429.75;4967729;28;20074;-59
2021/06/27 00:23:46;;;;;;;13.77;9.90;;;;;;;15.93;100.00;96429.91;4963566;28;20078;-60
2021/06/27 00:26:18;;;;;;;11.02;9.90;;;;;;;15.95;100.00;96434.06;4967342;28;20489;-57
2021/06/27 00:28:46;;;;;;;11.55;10.35;;;;;;;15.83;100.00;96438.97;4963475;28;20082;-59
2021/06/27 00:31:15;;;;;;;11.93;10.55;;;;;;;15.83;100.00;96438.97;4964265;28;20093;-57
2021/06/27 00:33:44;;;;;;;13.68;12.27;;;;;;;15.80;100.00;96441.16;4963950;28;20066;-56
2021/06/27 00:36:12;;;;;;;14.15;11.90;;;;;;;15.85;100.00;96436.13;4967153;28;20138;-59
2021/06/27 00:38:40;;;;;;;15.98;12.65;;;;;;;15.76;100.00;96442.50;4963588;28;20067;-60
2021/06/27 00:41:09;;;;;;;14.43;12.93;;;;;;;15.74;100.00;96433.91;4969289;28;20535;-58
2021/06/27 00:43:39;;;;;;;9.77;8.77;;;;;;;15.56;100.00;96424.34;4965196;28;20082;-53
2021/06/27 00:46:08;;;;;;;10.30;9.30;;;;;;;15.48;100.00;96423.56;4970779;28;20093;-59
2021/06/27 00:48:37;;;;;;;11.65;9.80;;;;;;;15.36;100.00;96416.00;4976442;28;20070;-58
2021/06/27 00:51:05;;;;;;;14.57;9.48;;;;;;;15.29;100.00;96420.38;4967364;28;20136;-56
2021/06/27 00:53:34;;;;;;;10.63;9.10;;;;;;;15.28;100.00;96424.03;4963951;28;20450;-59
2021/06/27 00:56:03;;;;;;;12.77;11.00;;;;;;;15.34;100.00;96422.47;4964496;28;20041;-57
2021/06/27 00:58:33;;;;;;;11.63;10.40;;;;;;;15.37;100.00;96430.94;4965373;28;20078;-57
2021/06/27 01:01:06;;;;;;;11.85;10.65;;;;;;;15.38;100.00;96421.97;4961550;28;20482;-59
2021/06/27 01:03:35;;;;;;;8.93;7.50;;;;;;;15.14;100.00;96416.78;4968592;28;20061;-58
2021/06/27 01:06:05;;;;;;;8.13;6.70;;;;;;;15.05;100.00;96413.34;4961650;28;20078;-55
2021/06/27 01:08:33;;;;;;;15.10;10.57;;;;;;;15.05;100.00;96417.84;4968570;28;20073;-56
2021/06/27 01:11:02;;;;;;;14.18;11.05;;;;;;;15.06;100.00;96420.31;4964431;28;20059;-53
2021/06/27 01:13:30;;;;;;;13.40;11.52;;;;;;;15.07;100.00;96421.13;4969116;28;20082;-61
2021/06/27 01:15:59;;;;;;;12.68;10.15;;;;;;;15.03;100.00;96414.53;4962880;28;20468;-58
2021/06/27 01:18:29;;;;;;;14.50;11.50;;;;;;;14.99;100.00;96418.53;4959484;28;20516;-57
2021/06/27 01:20:58;;;;;;;11.80;10.45;;;;;;;14.86;100.00;96417.22;4968137;28;20126;-58
2021/06/27 01:23:28;;;;;;;12.60;11.30;;;;;;;14.91;100.00;96416.75;4967949;28;20074;-55
2021/06/27 01:25:56;;;;;;;14.68;10.68;;;;;;;14.84;100.00;96421.09;4964464;28;20070;-59
2021/06/27 01:28:25;;;;;;;13.63;10.57;;;;;;;14.86;100.00;96422.53;4969516;28;20101;-60
2021/06/27 01:30:53;;;;;;;13.80;10.60;;;;;;;14.87;100.00;96426.06;4963972;28;20070;-55
2021/06/27 01:33:22;;;;;;;16.63;10.95;;;;;;;14.85;100.00;96418.25;4968701;28;20085;-59
2021/06/27 01:35:51;;;;;;;13.05;10.13;;;;;;;14.73;100.00;96424.94;4964625;28;20067;-59
2021/06/27 01:38:21;;;;;;;11.52;10.32;;;;;;;14.64;100.00;96423.31;4966231;28;20070;-58
2021/06/27 01:40:51;;;;;;;12.52;10.90;;;;;;;14.65;100.00;96417.00;4966266;28;20081;-60
2021/06/27 01:43:21;;;;;;;16.40;10.80;;;;;;;14.52;100.00;96424.66;4969013;28;20078;-60
2021/06/27 01:45:52;;;;;;;13.07;11.10;;;;;;;14.54;100.00;96425.31;4967732;28;20070;-58
2021/06/27 01:48:20;;;;;;;11.68;10.48;;;;;;;14.55;100.00;96427.78;4962897;28;20071;-59
2021/06/27 01:50:50;;;;;;;13.40;10.48;;;;;;;14.62;100.00;96417.31;4970121;28;20081;-60
2021/06/27 01:53:20;;;;;;;12.38;10.48;;;;;;;14.65;100.00;96415.16;4966627;28;20058;-59
2021/06/27 01:56:04;;;;;;;12.73;10.95;;;;;;;14.65;100.00;96422.31;4965269;28;20555;-60
2021/06/27 01:58:37;;;;;;;12.95;9.95;;;;;;;14.56;100.00;96418.84;4971126;28;20078;-58
2021/06/27 02:01:08;;;;;;;14.48;11.15;;;;;;;14.61;100.00;96419.16;4971541;28;20417;-58
2021/06/27 02:03:37;;;;;;;12.70;11.40;;;;;;;14.58;100.00;96424.81;4967597;28;20066;-60
2021/06/27 02:06:06;;;;;;;11.40;9.57;;;;;;;14.48;100.00;96419.66;4969607;28;20105;-57
2021/06/27 02:08:35;;;;;;;12.05;10.32;;;;;;;14.47;100.00;96425.97;4964294;28;20063;-60
2021/06/27 02:11:07;;;;;;;10.98;9.88;;;;;;;14.52;100.00;96427.31;4971263;28;20532;-60
2021/06/27 02:13:36;;;;;;;14.38;11.07;;;;;;;14.53;100.00;96435.13;4966834;28;20092;-58
2021/06/27 02:16:06;;;;;;;12.98;11.52;;;;;;;14.57;100.00;96428.47;4974034;28;20130;-52
2021/06/27 02:18:36;;;;;;;12.75;11.05;;;;;;;14.54;100.00;96420.84;4969527;28;20330;-58
2021/06/27 02:21:07;;;;;;;12.25;10.25;;;;;;;14.43;100.00;96427.31;4972199;28;20551;-58
2021/06/27 02:23:36;;;;;;;15.82;11.20;;;;;;;14.41;100.00;96431.13;4966088;28;20066;-58
2021/06/27 02:26:06;;;;;;;13.68;12.27;;;;;;;14.38;100.00;96429.66;4969660;28;20071;-58
2021/06/27 02:28:34;;;;;;;18.83;12.77;;;;;;;14.37;100.00;96429.81;4969517;28;20070;-58
2021/06/27 02:31:04;;;;;;;14.02;12.52;;;;;;;14.41;100.00;96436.44;4973189;28;20299;-59
2021/06/27 02:33:33;;;;;;;15.18;12.40;;;;;;;14.39;100.00;96439.25;4960229;28;20087;-59
2021/06/27 02:36:01;;;;;;;12.60;11.30;;;;;;;14.29;100.00;96433.31;4963361;28;20081;-59
2021/06/27 02:38:30;;;;;;;14.80;11.07;;;;;;;14.35;100.00;96426.47;4967365;28;20077;-58
2021/06/27 02:40:58;;;;;;;11.93;10.70;;;;;;;14.20;100.00;96429.81;4969188;28;20080;-57
2021/06/27 02:43:28;;;;;;;10.40;9.32;;;;;;;14.20;100.00;96421.88;4971794;28;20089;-60
2021/06/27 02:45:57;;;;;;;12.30;10.27;;;;;;;14.15;100.00;96432.16;4972105;28;20476;-59
2021/06/27 02:48:25;;;;;;;13.55;10.57;;;;;;;14.22;100.00;96434.97;4964939;28;20559;-56
2021/06/27 02:50:54;;;;;;;13.20;11.80;;;;;;;14.16;100.00;96425.84;4960200;28;20475;-60
2021/06/27 02:53:23;;;;;;;14.40;12.45;;;;;;;14.22;100.00;96434.97;4957593;28;20081;-56
2021/06/27 02:56:06;;;;;;;15.50;13.23;;;;;;;14.29;100.00;96435.13;4967127;28;20551;-58
2021/06/27 02:58:38;;;;;;;15.40;13.73;;;;;;;14.28;100.00;96439.63;4968224;28;20525;-60
2021/06/27 03:01:07;;;;;;;17.02;13.82;;;;;;;14.30;100.00;96447.41;4975450;28;20085;-59
2021/06/27 03:03:36;;;;;;;19.80;13.15;;;;;;;14.25;100.00;96453.22;4969316;28;20070;-61
2021/06/27 03:06:04;;;;;;;14.60;11.18;;;;;;;14.14;100.00;96449.09;4967013;28;20066;-57
2021/06/27 03:08:32;;;;;;;12.13;10.18;;;;;;;14.09;100.00;96437.31;4964902;28;20534;-57
2021/06/27 03:11:01;;;;;;;12.82;9.90;;;;;;;14.10;100.00;96428.34;4968436;28;20548;-58
2021/06/27 03:13:30;;;;;;;13.70;11.45;;;;;;;14.10;100.00;96423.03;4970169;28;20082;-60
2021/06/27 03:15:59;;;;;;;14.90;11.90;;;;;;;14.16;100.00;96430.34;4966912;28;20109;-58
2021/06/27 03:18:28;;;;;;;12.75;10.77;;;;;;;14.09;100.00;96427.53;4967436;28;20551;-58
2021/06/27 03:20:56;;;;;;;11.60;10.35;;;;;;;14.00;100.00;96431.16;4967403;28;20474;-59
2021/06/27 03:23:25;;;;;;;13.13;10.93;;;;;;;14.20;100.00;96432.47;4967824;28;20074;-60
2021/06/27 03:25:54;;;;;;;13.75;12.25;;;;;;;14.28;100.00;96417.53;4967008;28;20689;-52
2021/06/27 03:28:23;;;;;;;13.52;12.07;;;;;;;14.19;100.00;96422.88;4966501;28;20071;-60
2021/06/27 03:30:51;;;;;;;13.35;11.45;;;;;;;14.28;100.00;96421.06;4965338;28;20074;-57
2021/06/27 03:33:21;;;;;;;13.60;12.20;;;;;;;14.37;100.00;96422.66;4971478;28;20067;-57
2021/06/27 03:35:51;;;;;;;13.63;12.18;;;;;;;14.42;100.00;96424.84;4966763;28;20078;-58
2021/06/27 03:38:23;;;;;;;14.20;11.80;;;;;;;14.40;100.00;96422.34;4968251;28;20539;-56
2021/06/27 03:40:51;;;;;;;13.63;12.23;;;;;;;14.38;100.00;96424.34;4969939;28;20077;-56
2021/06/27 03:43:20;;;;;;;14.82;11.90;;;;;;;14.40;100.00;96425.00;4969240;28;20097;-59
2021/06/27 03:45:48;;;;;;;13.93;11.88;;;;;;;14.46;100.00;96423.50;4968819;28;20070;-57
2021/06/27 03:48:16;;;;;;;13.18;11.57;;;;;;;14.43;100.00;96415.88;4958012;28;20466;-60
2021/06/27 03:50:46;;;;;;;12.55;11.25;;;;;;;14.48;100.00;96411.69;4959219;28;20067;-57
2021/06/27 03:53:15;;;;;;;13.18;11.23;;;;;;;14.60;100.00;96398.13;4968041;28;20457;-59
2021/06/27 03:55:43;;;;;;;11.63;10.43;;;;;;;14.90;100.00;96397.34;4969895;28;20101;-56
2021/06/27 03:58:11;;;;;;;13.77;10.57;;;;;;;16.33;100.00;96380.81;4968514;28;20090;-60
2021/06/27 04:00:40;;;;;;;12.25;10.07;;;;;;;17.24;100.00;96368.94;4953039;28;20610;-57
2021/06/27 04:03:08;;;;;;;10.88;9.77;;;;;;;18.53;100.00;96357.28;4955608;28;20066;-59
2021/06/27 04:05:36;;;;;;;9.40;8.50;;;;;;;19.77;100.00;96357.94;4949455;28;20059;-62
2021/06/27 04:08:06;;;;;;;9.35;8.43;;;;;;;20.74;100.00;96342.19;4956702;28;20531;-57
2021/06/27 04:10:35;;;;;;;10.05;8.35;;;;;;;21.30;100.00;96342.38;4967444;28;20078;-61
2021/06/27 04:13:04;;;;;;;9.02;8.18;;;;;;;22.11;100.00;96345.31;4967630;28;20074;-58
2021/06/27 04:15:33;;;;;;;9.60;8.23;;;;;;;23.07;100.00;96341.28;4968341;28;20127;-57
2021/06/27 04:18:02;;;;;;;9.05;8.15;;;;;;;22.83;100.00;96332.22;4966040;28;20062;-60
2021/06/27 04:20:30;;;;;;;8.82;7.93;;;;;;;23.91;100.00;96342.16;4965546;28;20066;-57
2021/06/27 04:22:59;;;;;;;9.00;8.10;;;;;;;22.73;100.00;96338.13;4962024;28;20055;-60
2021/06/27 04:25:29;;;;;;;9.00;8.02;;;;;;;23.15;100.00;96341.75;4968688;28;20078;-60
2021/06/27 04:27:57;;;;;;;8.85;7.65;;;;;;;23.68;100.00;96342.94;4965162;28;20042;-60
2021/06/27 04:30:26;;;;;;;7.90;7.20;;;;;;;24.20;100.00;96348.53;4970633;28;20074;-61
2021/06/27 04:32:54;;;;;;;8.18;7.40;;;;;;;24.87;100.00;96348.16;4969491;28;20069;-62
2021/06/27 04:35:23;;;;;;;7.22;6.53;;;;;;;25.32;100.00;96348.28;4969734;28;20150;-59
2021/06/27 04:37:51;;;;;;;7.40;6.70;;;;;;;25.01;100.00;96351.41;4965262;28;20104;-61
2021/06/27 04:40:19;;;;;;;7.53;5.70;;;;;;;23.69;100.00;96358.03;4969538;28;20096;-61
2021/06/27 04:42:49;;;;;;;6.03;5.05;;;;;;;25.00;97.05;96349.78;4969519;28;20074;-58
2021/06/27 04:45:18;;;;;;;7.55;5.75;;;;;;;23.96;100.00;96353.06;4966624;28;20074;-60
2021/06/27 04:47:46;;;;;;;6.35;5.82;;;;;;;25.26;88.79;96348.44;4968295;28;20085;-60
2021/06/27 04:50:14;;;;;;;6.75;6.05;;;;;;;26.61;72.38;96341.28;4963602;28;20066;-59
2021/06/27 04:52:43;;;;;;;5.53;4.95;;;;;;;23.84;100.00;96352.22;4963822;28;20484;-58
2021/06/27 04:55:12;;;;;;;6.43;5.07;;;;;;;25.08;91.25;96339.41;4946207;28;20074;-57
2021/06/27 04:57:41;;;;;;;5.95;4.85;;;;;;;23.50;100.00;96343.78;4963886;28;20077;-57
2021/06/27 05:00:11;;;;;;;5.45;4.80;;;;;;;22.50;100.00;96336.94;4965638;28;20066;-59
2021/06/27 05:02:40;;;;;;;5.15;4.65;;;;;;;22.93;100.00;96343.31;4966935;28;20070;-58
2021/06/27 05:05:09;;;;;;;7.22;5.15;;;;;;;22.98;100.00;96344.25;4964238;28;20045;-58
2021/06/27 05:07:38;;;;;;;5.27;4.80;;;;;;;22.44;100.00;96340.50;4969237;28;20090;-59
2021/06/27 05:10:08;;;;;;;5.15;4.65;;;;;;;22.96;100.00;96343.66;4948541;28;20529;-59
2021/06/27 05:12:36;;;;;;;5.05;4.55;;;;;;;23.44;100.00;96342.84;4963016;28;20058;-59
2021/06/27 05:15:06;;;;;;;5.85;4.90;;;;;;;23.72;100.00;96330.66;4961750;28;20576;-58
2021/06/27 05:17:37;;;;;;;5.60;5.10;;;;;;;24.61;100.00;96323.34;4965923;28;20567;-58
2021/06/27 05:20:06;;;;;;;4.78;4.38;;;;;;;25.22;89.94;96317.56;4963327;28;20067;-59
2021/06/27 05:22:34;;;;;;;4.55;4.13;;;;;;;25.87;80.68;96325.25;4966762;28;20077;-60
2021/06/27 05:25:03;;;;;;;4.32;3.63;;;;;;;26.66;71.30;96324.31;4965281;28;20450;-59
2021/06/27 05:27:32;;;;;;;3.92;3.38;;;;;;;24.35;94.36;96343.47;4964418;28;20070;-58
2021/06/27 05:30:00;;;;;;;3.65;2.80;;;;;;;22.36;100.00;96346.13;4953886;28;20075;-58
2021/06/27 05:32:28;;;;;;;3.90;3.50;;;;;;;22.19;100.00;96337.00;4945477;28;20536;-59
2021/06/27 05:34:58;;;;;;;4.22;3.83;;;;;;;22.90;100.00;96339.16;4951561;28;20070;-59
2021/06/27 05:37:27;;;;;;;3.45;3.15;;;;;;;22.19;100.00;96342.38;4967691;28;20082;-60
2021/06/27 05:39:55;;;;;;;4.07;3.60;;;;;;;22.47;100.00;96333.84;4968743;28;20062;-59
2021/06/27 05:42:23;;;;;;;5.68;3.67;;;;;;;22.22;100.00;96342.75;4963823;28;21119;-59
2021/06/27 05:44:52;;;;;;;4.20;3.80;;;;;;;21.00;100.00;96339.41;4965937;28;20460;-60
2021/06/27 05:47:20;;;;;;;4.20;3.63;;;;;;;21.27;100.00;96348.16;4967914;28;20076;-60
2021/06/27 05:49:49;;;;;;;4.18;3.78;;;;;;;20.94;100.00;96339.44;4966331;28;20090;-59
2021/06/27 05:52:18;;;;;;;4.35;3.50;;;;;;;20.45;100.00;96357.69;4966240;28;20548;-58
2021/06/27 05:54:47;;;;;;;3.97;3.63;;;;;;;20.10;100.00;96359.81;4967019;28;20066;-56
2021/06/27 05:57:15;;;;;;;4.15;3.25;;;;;;;20.08;100.00;96356.50;4964934;28;20697;-57
2021/06/27 05:59:44;;;;;;;3.75;3.45;;;;;;;19.73;100.00;96351.34;4964199;28;20066;-60
2021/06/27 06:02:12;;;;;;;3.70;3.28;;;;;;;20.01;100.00;96350.34;4962093;28;20692;-59
2021/06/27 06:04:40;;;;;;;4.25;3.17;;;;;;;19.90;100.00;96346.44;4964300;28;20097;-59
2021/06/27 06:07:09;;;;;;;3.83;3.33;;;;;;;21.25;100.00;96346.72;4966716;28;20078;-58
2021/06/27 06:09:39;;;;;;;4.00;2.50;;;;;;;20.42;100.00;96354.63;4948904;28;20513;-57
2021/06/27 06:12:08;;;;;;;5.82;2.72;;;;;;;20.17;100.00;96365.97;4954776;28;20087;-61
2021/06/27 06:14:36;;;;;;;3.97;2.50;;;;;;;20.38;100.00;96359.56;4958904;28;20137;-59
2021/06/27 06:17:05;;;;;;;4.38;2.95;;;;;;;20.78;100.00;96356.81;4968574;28;20054;-59
2021/06/27 06:19:34;;;;;;;4.18;2.85;;;;;;;20.73;100.00;96362.81;4977069;28;20085;-60
2021/06/27 06:22:02;;;;;;;3.05;2.75;;;;;;;21.29;100.00;96364.03;4967597;28;20543;-58
2021/06/27 06:24:31;;;;;;;3.47;2.60;;;;;;;21.54;100.00;96356.91;4974858;28;20078;-59
2021/06/27 06:27:01;;;;;;;4.38;2.47;;;;;;;21.28;100.00;96355.16;4956262;28;20043;-59
2021/06/27 06:29:29;;;;;;;2.30;2.10;;;;;;;21.67;100.00;96360.53;4958928;28;20066;-56
2021/06/27 06:31:57;;;;;;;2.95;2.30;;;;;;;20.98;100.00;96357.56;4969450;28;20528;-54
2021/06/27 06:34:26;;;;;;;2.42;2.20;;;;;;;22.19;100.00;96361.19;4970724;28;20089;-58
2021/06/27 06:36:54;;;;;;;2.70;2.13;;;;;;;21.84;100.00;96363.50;4963940;28;20074;-58
2021/06/27 06:39:22;;;;;;;2.05;1.85;;;;;;;21.79;100.00;96358.81;4969641;28;20070;-57
2021/06/27 06:41:51;;;;;;;1.70;1.60;;;;;;;22.46;100.00;96359.91;4969167;28;20082;-56
2021/06/27 06:44:21;;;;;;;2.03;1.60;;;;;;;22.98;100.00;96357.69;4964202;28;20062;-53
2021/06/27 06:46:49;;;;;;;1.73;1.63;;;;;;;22.27;100.00;96359.06;4968083;28;20079;-59
2021/06/27 06:49:17;;;;;;;1.80;1.60;;;;;;;22.58;100.00;96361.88;4969437;28;20091;-57
2021/06/27 06:51:46;;;;;;;2.55;1.73;;;;;;;22.50;100.00;96360.28;4971906;28;20469;-56
2021/06/27 06:54:14;;;;;;;2.90;1.75;;;;;;;23.48;100.00;96359.34;4966306;28;20058;-58
2021/06/27 06:56:42;;;;;;;1.90;1.70;;;;;;;22.40;100.00;96363.50;4968552;28;20066;-59
2021/06/27 06:59:11;;;;;;;1.75;1.60;;;;;;;22.91;100.00;96356.91;4965687;28;20097;-58
2021/06/27 07:01:43;;;;;;;2.42;1.70;;;;;;;22.70;100.00;96360.88;4965785;28;20083;-58
2021/06/27 07:04:12;;;;;;;2.40;1.52;;;;;;;22.64;100.00;96369.88;4968184;28;20519;-60
2021/06/27 07:06:40;;;;;;;1.30;1.20;;;;;;;23.15;100.00;96367.84;4966609;28;20078;-60
2021/06/27 07:09:09;;;;;;;4.28;1.60;;;;;;;23.06;100.00;96372.72;4968724;28;20066;-59
2021/06/27 07:11:38;;;;;;;1.70;1.60;;;;;;;23.26;100.00;96360.88;4970965;28;20035;-59
2021/06/27 07:14:06;;;;;;;1.80;1.60;;;;;;;23.50;100.00;96362.59;4965074;28;20515;-59
2021/06/27 07:16:34;;;;;;;2.08;1.40;;;;;;;22.60;100.00;96355.19;4964191;28;20146;-56
2021/06/27 07:19:05;;;;;;;2.20;1.40;;;;;;;22.59;100.00;96366.19;4969423;28;20093;-59
2021/06/27 07:21:33;;;;;;;3.03;1.40;;;;;;;22.84;100.00;96355.38;4964015;28;20066;-60
2021/06/27 07:24:02;;;;;;;1.73;1.60;;;;;;;23.03;100.00;96366.97;4968386;28;20464;-55
2021/06/27 07:26:30;;;;;;;4.00;1.45;;;;;;;23.05;100.00;96364.88;4962647;28;20059;-59
2021/06/27 07:28:58;;;;;;;3.05;1.52;;;;;;;23.46;100.00;96364.13;4952400;28;20071;-59
2021/06/27 07:31:27;;;;;;;2.47;1.80;;;;;;;23.42;100.00;96363.75;4966202;28;20473;-59
2021/06/27 07:33:55;;;;;;;1.92;1.70;;;;;;;22.23;100.00;96367.78;4964489;28;20074;-59
2021/06/27 07:36:25;;;;;;;2.05;1.75;;;;;;;22.73;100.00;96365.00;4967192;28;20066;-59
2021/06/27 07:38:53;;;;;;;1.95;1.60;;;;;;;23.16;100.00;96361.44;4970517;28;20081;-59
2021/06/27 07:41:22;;;;;;;2.38;1.77;;;;;;;23.80;100.00;96346.47;4959012;28;20542;-59
2021/06/27 07:43:51;;;;;;;2.67;1.90;;;;;;;24.56;100.00;96346.66;4969415;28;20191;-58
2021/06/27 07:46:19;;;;;;;2.67;1.85;;;;;;;24.55;99.99;96347.72;4966662;28;20078;-60
2021/06/27 07:48:48;;;;;;;2.40;2.20;;;;;;;23.92;100.00;96336.56;4966134;28;20066;-58
2021/06/27 07:51:16;;;;;;;2.20;2.00;;;;;;;23.49;100.00;96338.63;4966420;28;20066;-59
2021/06/27 07:53:46;;;;;;;2.75;2.28;;;;;;;23.49;100.00;96338.63;4967435;28;20070;-59
2021/06/27 07:56:14;;;;;;;1.90;1.80;;;;;;;23.50;100.00;96337.56;4965131;28;20067;-59
2021/06/27 07:59:01;;;;;;;2.97;2.15;;;;;;;24.47;100.00;96337.31;4967468;28;22324;-58
2021/06/27 08:01:29;;;;;;;2.35;2.10;;;;;;;24.03;100.00;96334.09;4964862;28;20074;-58
2021/06/27 08:03:58;;;;;;;2.42;2.10;;;;;;;23.67;100.00;96328.66;4966348;28;20070;-59
2021/06/27 08:06:26;;;;;;;2.10;1.90;;;;;;;24.23;100.00;96334.59;4964945;28;20075;-58
2021/06/27 08:08:56;;;;;;;4.35;2.17;;;;;;;24.51;100.00;96328.50;4968065;28;20070;-59
2021/06/27 08:11:24;;;;;;;2.67;2.20;;;;;;;24.77;99.53;96324.47;4964620;28;20055;-59
2021/06/27 08:13:53;;;;;;;3.88;2.40;;;;;;;23.81;100.00;96329.28;4967987;28;20079;-58
2021/06/27 08:16:21;;;;;;;2.75;2.30;;;;;;;23.48;100.00;96328.91;4968844;28;20078;-58
2021/06/27 08:18:49;;;;;;;2.50;2.17;;;;;;;24.17;100.00;96330.13;4968431;28;20070;-57
2021/06/27 08:21:19;;;;;;;3.75;2.60;;;;;;;24.05;100.00;96318.50;4962825;28;20074;-59
2021/06/27 08:23:47;;;;;;;3.00;2.40;;;;;;;24.72;100.00;96323.56;4968110;28;20075;-58
2021/06/27 08:26:18;;;;;;;2.95;2.65;;;;;;;24.87;100.00;96321.19;4966822;28;20066;-57
2021/06/27 08:28:51;;;;;;;4.75;2.88;;;;;;;24.03;100.00;96328.72;4964804;28;20091;-56
2021/06/27 08:31:21;;;;;;;3.28;2.70;;;;;;;24.22;100.00;96322.16;4952151;28;20075;-58
2021/06/27 08:33:49;;;;;;;3.08;2.70;;;;;;;24.17;100.00;96325.56;4959086;28;20484;-58
2021/06/27 08:36:18;;;;;;;4.72;3.58;;;;;;;24.21;100.00;96317.81;4964683;28;20600;-58
2021/06/27 08:38:46;;;;;;;3.63;3.15;;;;;;;24.59;100.00;96316.53;4964236;28;20081;-59
2021/06/27 08:41:16;;;;;;;4.20;3.80;;;;;;;24.33;100.00;96320.53;4963943;28;20059;-58
2021/06/27 08:43:45;;;;;;;;;;;;;;;24.41;100.00;96317.50;4965012;28;20069;-59
2021/06/27 08:46:14;;;;;;;4.10;3.70;;;;;;;23.96;100.00;96312.66;4967454;28;19997;-60
2021/06/27 08:48:44;;;;;;;4.28;3.88;;;;;;;23.88;100.00;96313.00;4965681;28;20538;-58
2021/06/27 08:51:13;;;;;;;6.80;4.97;;;;;;;24.08;100.00;96316.16;4964590;28;20067;-59
2021/06/27 08:53:42;;;;;;;6.57;4.72;;;;;;;23.91;100.00;96316.03;4964355;28;20081;-59
2021/06/27 08:56:12;;;;;;;5.85;4.85;;;;;;;23.69;100.00;96312.25;4966787;28;20058;-59
2021/06/27 08:58:43;;;;;;;6.38;5.75;;;;;;;24.17;100.00;96305.88;4964345;28;20074;-59
2021/06/27 09:01:13;;;;;;;6.15;5.55;;;;;;;24.29;100.00;96312.06;4968451;28;20195;-59
2021/06/27 09:03:44;;;;;;;6.88;6.18;;;;;;;24.76;100.00;96303.16;4963620;28;20075;-58
2021/06/27 09:06:23;;;;;;;7.88;7.07;;;;;;;24.70;100.00;96302.22;4965805;28;20058;-56
2021/06/27 09:09:16;;;;;;;8.27;5.90;;;;;;;24.79;100.00;96303.50;4961130;28;20054;-58
2021/06/27 09:12:06;;;;;;;6.22;5.63;;;;;;;24.75;100.00;96310.41;4965602;28;20443;-59
2021/06/27 09:14:38;;;;;;;5.88;5.30;;;;;;;24.93;100.00;96301.34;4957176;28;20062;-60
2021/06/27 09:17:11;;;;;;;7.20;6.22;;;;;;;24.21;100.00;96311.63;4965495;28;20063;-59
2021/06/27 09:19:57;;;;;;;6.13;5.53;;;;;;;24.49;100.00;96300.13;4961456;28;20103;-58
2021/06/27 09:22:27;;;;;;;4.70;4.30;;;;;;;24.68;100.00;96306.22;4968988;28;20082;-58
2021/06/27 09:25:12;;;;;;;4.70;4.30;;;;;;;24.90;100.00;96307.22;4958974;28;20062;-59
2021/06/27 09:27:40;;;;;;;4.65;4.07;;;;;;;24.66;100.00;96302.94;4962702;28;20556;-59
2021/06/27 09:30:18;;;;;;;4.68;4.18;;;;;;;25.31;100.00;96295.34;4963095;28;20089;-58
2021/06/27 09:32:55;;;;;;;5.45;4.15;;;;;;;24.72;100.00;96297.41;4964183;28;20077;-59
2021/06/27 09:35:38;;;;;;;4.82;4.32;;;;;;;25.44;100.00;96296.94;4964797;28;20067;-57
2021/06/27 09:38:31;;;;;;;4.88;4.45;;;;;;;25.03;100.00;96285.34;4966604;28;20062;-58
2021/06/27 09:41:01;;;;;;;6.53;4.43;;;;;;;25.26;100.00;96291.75;4962211;28;20062;-57
2021/06/27 09:43:32;;;;;;;5.15;4.45;;;;;;;25.08;100.00;96300.81;4966001;28;20066;-58
2021/06/27 09:46:03;;;;;;;;;;;;;;;25.42;100.00;96298.25;4964466;28;20324;-60
2021/06/27 09:48:32;;;;;;;6.07;4.97;;;;;;;25.67;100.00;96295.16;4968763;28;20349;-58
2021/06/27 09:51:00;;;;;;;5.55;4.97;;;;;;;25.69;100.00;96282.25;4952535;28;20069;-58
2021/06/27 09:53:47;;;;;;;5.57;4.70;;;;;;;25.72;100.00;96296.06;4959016;28;20513;-58
2021/06/27 09:56:16;;;;;;;5.53;4.70;;;;;;;25.72;100.00;96296.06;4968027;28;20070;-61
2021/06/27 09:58:59;;;;;;;6.93;4.13;;;;;;;25.89;100.00;96298.00;4970300;28;20093;-58
2021/06/27 10:01:31;;;;;;;5.32;4.82;;;;;;;26.12;100.00;96297.84;4967450;28;20074;-59
2021/06/27 10:04:01;;;;;;;6.70;5.60;;;;;;;25.29;100.00;96286.69;4968979;28;20333;-61
2021/06/27 10:06:31;;;;;;;6.25;4.82;;;;;;;25.81;100.00;96288.44;4967404;28;20070;-59
2021/06/27 10:09:10;;;;;;;5.43;4.55;;;;;;;25.93;100.00;96296.44;4971828;28;20069;-58
2021/06/27 10:11:39;;;;;;;5.05;4.55;;;;;;;26.04;100.00;96287.41;4967096;28;20510;-59
2021/06/27 10:14:10;;;;;;;5.32;4.78;;;;;;;25.78;100.00;96283.47;4967279;28;20063;-57
2021/06/27 10:16:40;;;;;;;8.52;4.80;;;;;;;26.35;100.00;96282.47;4944039;28;20529;-59
2021/06/27 10:19:09;;;;;;;5.20;4.70;;;;;;;26.14;100.00;96284.88;4970616;28;20075;-59
2021/06/27 10:21:37;;;;;;;5.45;4.32;;;;;;;26.18;100.00;96277.91;4965848;28;20476;-60
2021/06/27 10:24:06;;;;;;;5.93;4.53;;;;;;;26.45;100.00;96271.78;4968643;28;20086;-59
2021/06/27 10:26:35;;;;;;;5.43;4.43;;;;;;;26.21;100.00;96280.13;4968387;28;20143;-58
2021/06/27 10:29:04;;;;;;;5.20;4.70;;;;;;;26.08;99.77;96275.06;4969283;28;20067;-57
2021/06/27 10:31:32;;;;;;;5.30;4.47;;;;;;;26.50;97.42;96274.63;4969739;28;20090;-58
2021/06/27 10:34:02;;;;;;;6.15;4.50;;;;;;;26.70;97.23;96269.47;4949585;28;21323;-56
2021/06/27 10:36:37;;;;;;;5.18;4.25;;;;;;;26.45;96.83;96275.31;4964054;28;20086;-58
2021/06/27 10:39:10;;;;;;;4.47;4.07;;;;;;;26.62;95.67;96275.31;4973157;28;20078;-57
2021/06/27 10:41:48;;;;;;;4.13;3.60;;;;;;;26.24;94.35;96276.09;4965826;28;20077;-57
2021/06/27 10:44:17;;;;;;;4.05;3.65;;;;;;;26.92;89.97;96274.06;4960372;28;20072;-58
2021/06/27 10:46:47;;;;;;;4.97;3.33;;;;;;;26.41;92.64;96274.19;4952328;28;20078;-59
2021/06/27 10:49:54;;;;;;;5.38;4.05;;;;;;;26.55;100.00;96266.56;4970104;28;20094;-58
2021/06/27 10:52:23;;;;;;;3.85;3.53;;;;;;;26.34;94.41;96270.84;4961749;28;20315;-58
2021/06/27 10:55:18;;;;;;;3.90;3.22;;;;;;;26.32;96.75;96261.34;4968454;28;20268;-58
2021/06/27 10:58:06;;;;;;;4.32;3.67;;;;;;;26.25;92.30;96269.63;4964805;28;20433;-59
2021/06/27 11:01:00;;;;;;;3.80;3.35;;;;;;;26.02;95.53;96278.75;4969089;28;20066;-57
2021/06/27 11:03:37;;;;;;;3.72;3.35;;;;;;;26.49;87.66;96281.88;4967401;28;20448;-57
2021/06/27 11:06:08;;;;;;;4.50;3.20;;;;;;;26.72;93.68;96270.03;4972049;28;20066;-58
2021/06/27 11:08:39;;;;;;;6.20;3.40;;;;;;;27.06;84.92;96269.88;4965826;28;20078;-58
2021/06/27 11:11:11;;;;;;;3.83;3.40;;;;;;;26.62;88.03;96267.19;4969698;28;20073;-54
2021/06/27 11:13:40;;;;;;;4.22;3.08;;;;;;;26.50;88.15;96258.38;4965067;28;20082;-58
2021/06/27 11:16:13;;;;;;;3.80;3.45;;;;;;;26.53;85.99;96257.88;4970076;28;20077;-59
2021/06/27 11:18:44;;;;;;;3.55;3.25;;;;;;;26.31;87.22;96255.13;4966792;28;20509;-53
2021/06/27 11:21:25;;;;;;;4.20;3.20;;;;;;;26.15;87.27;96258.66;4973885;28;20074;-55
2021/06/27 11:24:08;;;;;;;4.57;3.08;;;;;;;26.46;90.12;96263.44;4955865;28;20066;-58
2021/06/27 11:26:56;;;;;;;5.40;3.50;;;;;;;26.91;80.91;96259.72;4955435;28;20074;-58
2021/06/27 11:29:47;;;;;;;3.50;3.20;;;;;;;27.30;85.59;96258.78;4953563;28;20067;-58
2021/06/27 11:32:49;;;;;;;3.40;3.10;;;;;;;26.86;85.90;96254.22;4967494;28;20693;-54
2021/06/27 11:35:39;;;;;;;4.10;2.97;;;;;;;26.84;77.51;96252.84;4965771;28;20519;-57
2021/06/27 11:38:31;;;;;;;4.55;3.20;;;;;;;26.91;78.09;96256.16;4970649;28;20120;-58